Time;durP1;ratioP1;P1;durP2;ratioP2;P2;SDS_P1;SDS_P2;PMS_P1;PMS_P2;Temp;Humidity;BMP_temperature;BMP_pressure;BME280_temperature;BME280_humidity;BME280_pressure;Samples;Min_cycle;Max_cycle;Signal;HPM_P1;HPM_P2
2022/02/12 00:00:37;;;;;;;13.83;4.43;;;0.80;99.90;;;;;;5021395;28;20521;-88
2022/02/12 00:03:03;;;;;;;13.40;4.23;;;0.70;99.90;;;;;;5022647;28;20026;-88
2022/02/12 00:05:29;;;;;;;16.73;5.17;;;0.60;99.90;;;;;;5008991;28;20022;-88
2022/02/12 00:07:56;;;;;;;23.47;6.00;;;0.60;99.90;;;;;;5016546;28;20013;-88
2022/02/12 00:10:23;;;;;;;28.23;6.10;;;0.60;99.90;;;;;;5028960;28;20022;-89
2022/02/12 00:12:49;;;;;;;18.37;6.00;;;0.50;99.90;;;;;;5016286;28;20029;-89
2022/02/12 00:15:15;;;;;;;12.70;6.00;;;0.50;99.90;;;;;;5007691;28;20029;-89
2022/02/12 00:17:43;;;;;;;25.97;5.63;;;0.60;99.90;;;;;;5021880;28;20044;-88
2022/02/12 00:20:09;;;;;;;28.83;5.97;;;0.70;99.90;;;;;;5013265;28;20034;-89
2022/02/12 00:22:35;;;;;;;21.30;5.47;;;0.60;99.90;;;;;;5014396;28;20021;-89
2022/02/12 00:25:01;;;;;;;21.90;4.57;;;0.60;99.90;;;;;;5010749;28;20036;-89
2022/02/12 00:27:27;;;;;;;26.63;4.80;;;0.50;99.90;;;;;;5020001;28;20044;-90
2022/02/12 00:29:52;;;;;;;14.43;5.40;;;0.30;99.90;;;;;;5018248;28;20034;-89
2022/02/12 00:32:18;;;;;;;21.57;5.40;;;0.30;99.90;;;;;;5008761;28;20017;-89
2022/02/12 00:34:43;;;;;;;16.27;5.20;;;0.20;99.90;;;;;;5027305;28;20095;-89
2022/02/12 00:37:09;;;;;;;12.97;4.93;;;0.20;99.90;;;;;;5006630;28;20033;-89
2022/02/12 00:39:35;;;;;;;20.03;5.03;;;0.20;99.90;;;;;;5025890;28;20044;-89
2022/02/12 00:42:01;;;;;;;11.87;5.80;;;0.30;99.90;;;;;;5014800;28;20036;-89
2022/02/12 00:44:27;;;;;;;12.37;5.60;;;0.30;99.90;;;;;;5028451;28;20028;-88
2022/02/12 00:46:55;;;;;;;11.73;5.53;;;0.40;99.90;;;;;;5018229;28;20029;-89
2022/02/12 00:49:21;;;;;;;12.53;5.60;;;0.40;99.90;;;;;;5015756;28;20034;-89
2022/02/12 00:51:48;;;;;;;15.10;5.60;;;0.40;99.90;;;;;;5009592;28;20063;-89
2022/02/12 00:54:14;;;;;;;20.63;5.70;;;0.30;99.90;;;;;;5012444;28;20560;-89
2022/02/12 00:56:40;;;;;;;14.17;5.83;;;0.20;99.90;;;;;;5017980;28;20030;-89
2022/02/12 00:59:05;;;;;;;15.53;5.30;;;0.10;99.90;;;;;;5019106;28;20033;-89
2022/02/12 01:01:56;;;;;;;15.50;4.90;;;0.00;99.90;;;;;;5028622;28;20029;-88
2022/02/12 01:04:22;;;;;;;10.33;5.10;;;0.00;99.90;;;;;;5014708;28;20391;-89
2022/02/12 01:06:48;;;;;;;11.60;5.00;;;0.00;99.90;;;;;;5030206;28;20028;-89
2022/02/12 01:09:14;;;;;;;12.17;5.10;;;0.00;99.90;;;;;;5030038;28;20049;-89
2022/02/12 01:11:40;;;;;;;9.67;4.70;;;0.00;99.90;;;;;;5018751;28;20041;-89
2022/02/12 01:14:06;;;;;;;11.43;5.37;;;0.10;99.90;;;;;;5035675;28;20060;-89
2022/02/12 01:16:32;;;;;;;14.27;5.50;;;0.00;99.90;;;;;;5014966;28;20021;-89
2022/02/12 01:18:58;;;;;;;9.40;5.10;;;0.00;99.90;;;;;;5029834;28;20033;-89
2022/02/12 01:21:24;;;;;;;20.50;5.90;;;-0.10;99.90;;;;;;5021756;28;20029;-89
2022/02/12 01:23:50;;;;;;;11.67;5.63;;;-0.10;99.90;;;;;;5033014;28;20045;-88
2022/02/12 01:26:16;;;;;;;12.77;5.50;;;-0.10;99.90;;;;;;5024219;28;20080;-88
2022/02/12 01:28:42;;;;;;;12.60;5.37;;;-0.10;99.90;;;;;;5032943;28;20034;-88
2022/02/12 01:31:08;;;;;;;11.10;5.20;;;0.00;99.90;;;;;;5029949;28;20034;-88
2022/02/12 01:33:33;;;;;;;9.93;4.80;;;0.00;99.90;;;;;;5024045;28;20121;-88
2022/02/12 01:35:59;;;;;;;11.73;5.00;;;0.00;99.90;;;;;;5034612;28;20018;-88
2022/02/12 01:38:27;;;;;;;8.30;4.20;;;0.00;99.90;;;;;;5032351;28;20071;-88
2022/02/12 01:40:54;;;;;;;9.57;5.10;;;0.00;99.90;;;;;;5020975;28;20017;-89
2022/02/12 01:43:20;;;;;;;13.07;5.20;;;0.00;99.90;;;;;;5029192;28;20022;-89
2022/02/12 01:45:46;;;;;;;11.03;4.63;;;0.10;99.90;;;;;;5023949;28;20033;-89
2022/02/12 01:48:13;;;;;;;10.23;4.90;;;0.20;99.90;;;;;;5029468;28;20026;-90
2022/02/12 01:50:39;;;;;;;12.70;4.87;;;0.10;99.90;;;;;;5020536;28;20109;-90
2022/02/12 01:53:04;;;;;;;10.73;4.47;;;0.10;99.90;;;;;;5011196;28;20065;-89
2022/02/12 01:55:30;;;;;;;10.20;4.70;;;0.00;99.90;;;;;;5015868;28;20631;-88
2022/02/12 01:57:56;;;;;;;11.13;5.50;;;0.00;99.90;;;;;;5015078;28;20042;-89
2022/02/12 02:00:22;;;;;;;11.10;5.07;;;0.10;99.90;;;;;;5021722;28;20022;-88
2022/02/12 02:02:48;;;;;;;11.73;5.10;;;0.10;99.90;;;;;;5018778;28;20022;-88
2022/02/12 02:05:15;;;;;;;8.20;4.33;;;0.10;99.90;;;;;;5020711;28;20068;-89
2022/02/12 02:07:42;;;;;;;14.63;5.43;;;0.10;99.90;;;;;;5027001;28;20026;-89
2022/02/12 02:10:09;;;;;;;10.53;4.90;;;0.10;99.90;;;;;;5023688;28;20032;-89
2022/02/12 02:12:35;;;;;;;12.10;5.43;;;0.10;99.90;;;;;;5020925;28;20025;-90
2022/02/12 02:15:02;;;;;;;10.93;4.67;;;0.10;99.90;;;;;;5035153;28;20545;-89
2022/02/12 02:17:28;;;;;;;9.93;4.83;;;0.10;99.90;;;;;;5032279;28;20023;-89
2022/02/12 02:19:54;;;;;;;10.07;4.70;;;0.10;99.90;;;;;;5019447;28;20045;-89
2022/02/12 02:22:28;;;;;;;9.23;4.43;;;0.10;99.90;;;;;;5033533;28;20105;-89
2022/02/12 02:24:54;;;;;;;11.30;4.83;;;0.10;99.90;;;;;;5029595;28;20017;-89
2022/02/12 02:27:21;;;;;;;9.90;4.63;;;0.10;99.90;;;;;;5024920;28;20033;-90
2022/02/12 02:29:47;;;;;;;12.53;5.10;;;0.10;99.90;;;;;;5010695;28;20022;-90
2022/02/12 02:32:14;;;;;;;12.43;4.77;;;0.10;99.90;;;;;;5032067;28;20091;-89
2022/02/12 02:34:54;;;;;;;9.53;4.47;;;0.10;99.90;;;;;;5032608;28;20032;-90
2022/02/12 02:37:21;;;;;;;10.97;4.83;;;0.10;99.90;;;;;;5034704;28;20078;-89
2022/02/12 02:39:47;;;;;;;12.17;5.03;;;0.00;99.90;;;;;;5025432;28;20022;-89
2022/02/12 02:42:13;;;;;;;11.50;5.40;;;0.00;99.90;;;;;;5021427;28;20022;-89
2022/02/12 02:44:39;;;;;;;12.73;4.80;;;0.00;99.90;;;;;;5034102;28;20040;-89
2022/02/12 02:55:59;;;;;;;8.23;4.47;;;0.10;99.90;;;;;;5002887;28;20038;-89
2022/02/12 02:58:18;;;;;;;10.00;4.33;;;0.00;99.90;;;;;;5031654;28;20154;-89
2022/02/12 03:00:43;;;;;;;10.33;4.47;;;0.00;99.90;;;;;;5038607;23;20057;-86
2022/02/12 03:03:09;;;;;;;8.30;4.27;;;0.00;99.90;;;;;;5030846;28;20053;-87
2022/02/12 03:05:34;;;;;;;7.63;4.07;;;0.00;99.90;;;;;;5019595;28;20033;-87
2022/02/12 03:08:00;;;;;;;7.87;3.67;;;-0.10;99.90;;;;;;5038017;28;20017;-86
2022/02/12 03:10:25;;;;;;;10.97;4.80;;;-0.10;99.90;;;;;;5024589;28;20054;-87
2022/02/12 03:12:51;;;;;;;9.20;3.97;;;-0.10;99.90;;;;;;5002718;28;20018;-86
2022/02/12 03:15:17;;;;;;;10.83;4.73;;;-0.10;99.90;;;;;;5008219;28;20026;-87
2022/02/12 03:17:42;;;;;;;9.90;4.00;;;-0.10;99.90;;;;;;5005512;28;20026;-87
2022/02/12 03:20:08;;;;;;;12.23;4.30;;;-0.10;99.90;;;;;;5002342;28;20033;-87
2022/02/12 03:22:34;;;;;;;10.20;4.07;;;-0.10;99.90;;;;;;5005646;28;20021;-87
2022/02/12 03:25:00;;;;;;;7.87;3.57;;;-0.10;99.90;;;;;;5003998;28;20110;-87
2022/02/12 03:27:25;;;;;;;12.93;4.57;;;-0.10;99.90;;;;;;5003681;28;20033;-87
2022/02/12 03:29:51;;;;;;;10.23;4.27;;;-0.20;99.90;;;;;;4999910;28;20113;-86
2022/02/12 03:32:17;;;;;;;11.43;4.03;;;-0.20;99.90;;;;;;5003470;28;20029;-87
2022/02/12 03:34:42;;;;;;;12.60;3.63;;;-0.20;99.90;;;;;;5005311;28;20373;-87
2022/02/12 03:37:08;;;;;;;8.47;4.50;;;-0.20;99.90;;;;;;4997626;28;20023;-87
2022/02/12 03:39:33;;;;;;;10.87;4.17;;;-0.20;99.90;;;;;;4999381;28;20552;-86
2022/02/12 03:41:59;;;;;;;10.80;4.57;;;-0.20;99.90;;;;;;4998375;28;20121;-87
2022/02/12 03:44:25;;;;;;;11.77;4.60;;;-0.20;99.90;;;;;;4998139;28;20054;-87
2022/02/12 03:46:50;;;;;;;9.13;4.10;;;-0.20;99.90;;;;;;5000257;28;20462;-86
2022/02/12 03:49:16;;;;;;;11.57;4.33;;;-0.30;99.90;;;;;;5015474;28;20040;-87
2022/02/12 03:51:41;;;;;;;13.80;4.50;;;-0.20;99.90;;;;;;5005552;28;20546;-87
2022/02/12 03:54:07;;;;;;;11.33;4.37;;;-0.30;99.90;;;;;;4999540;28;20034;-86
2022/02/12 03:56:32;;;;;;;6.77;3.27;;;-0.30;99.90;;;;;;5005243;28;20025;-87
2022/02/12 03:58:58;;;;;;;9.60;4.13;;;-0.30;99.90;;;;;;5001174;28;20026;-87
2022/02/12 04:01:24;;;;;;;10.43;3.70;;;-0.30;99.90;;;;;;4997843;28;20030;-86
2022/02/12 04:03:51;;;;;;;11.03;4.73;;;-0.30;99.90;;;;;;5003962;28;20412;-87
2022/02/12 04:06:16;;;;;;;13.57;5.17;;;-0.40;99.90;;;;;;5025252;28;20068;-86
2022/02/12 04:08:42;;;;;;;10.00;4.67;;;-0.40;99.90;;;;;;4999217;28;20046;-86
2022/02/12 04:11:07;;;;;;;11.27;4.07;;;-0.40;99.90;;;;;;5004829;28;20025;-86
2022/02/12 04:13:36;;;;;;;10.80;4.17;;;-0.40;99.90;;;;;;5006686;28;20022;-86
2022/02/12 04:16:02;;;;;;;10.43;4.30;;;-0.40;99.90;;;;;;5019208;28;20472;-86
2022/02/12 04:18:28;;;;;;;12.10;4.87;;;-0.40;99.90;;;;;;5000529;28;20114;-87
2022/02/12 04:20:54;;;;;;;12.57;4.73;;;-0.30;99.90;;;;;;5005257;28;20050;-86
2022/02/12 04:23:19;;;;;;;11.57;4.03;;;-0.40;99.90;;;;;;5005129;28;20045;-87
2022/02/12 04:25:45;;;;;;;8.60;3.97;;;-0.40;99.90;;;;;;5009651;28;20084;-88
2022/02/12 04:28:11;;;;;;;13.63;4.40;;;-0.50;99.90;;;;;;4999812;28;20069;-87
2022/02/12 04:30:39;;;;;;;9.13;3.40;;;-0.50;99.90;;;;;;5000155;28;20022;-87
2022/02/12 04:33:06;;;;;;;10.40;4.23;;;-0.50;99.90;;;;;;5004212;28;20522;-87
2022/02/12 04:35:31;;;;;;;11.13;4.87;;;-0.50;99.90;;;;;;4997092;28;20034;-87
2022/02/12 04:37:57;;;;;;;9.07;3.80;;;-0.50;99.90;;;;;;5004811;28;20022;-87
2022/02/12 04:40:23;;;;;;;12.87;4.73;;;-0.50;99.90;;;;;;5001730;28;20403;-87
2022/02/12 04:42:49;;;;;;;11.00;4.40;;;-0.60;99.90;;;;;;5011307;28;20018;-87
2022/02/12 04:45:14;;;;;;;11.23;4.07;;;-0.60;99.90;;;;;;5007760;28;20022;-87
2022/02/12 04:47:40;;;;;;;11.90;4.30;;;-0.60;99.90;;;;;;5002586;28;20034;-87
2022/02/12 04:50:07;;;;;;;9.80;4.13;;;-0.70;99.90;;;;;;5007956;28;20029;-87
2022/02/12 04:52:33;;;;;;;12.50;4.23;;;-0.70;99.90;;;;;;4999011;28;20512;-87
2022/02/12 04:54:58;;;;;;;14.60;4.63;;;-0.70;99.90;;;;;;5009050;28;20052;-86
2022/02/12 04:57:24;;;;;;;11.07;4.33;;;-0.70;99.90;;;;;;5005567;28;20388;-87
2022/02/12 04:59:50;;;;;;;11.23;4.60;;;-0.70;99.90;;;;;;4998803;28;20025;-87
2022/02/12 05:02:15;;;;;;;12.00;4.17;;;-0.70;99.90;;;;;;4998761;28;20030;-87
2022/02/12 05:04:42;;;;;;;10.80;4.37;;;-0.80;99.90;;;;;;5006482;28;20369;-87
2022/02/12 05:07:09;;;;;;;10.87;5.03;;;-0.80;99.90;;;;;;5004872;28;20036;-87
2022/02/12 05:09:35;;;;;;;11.47;4.37;;;-0.80;99.90;;;;;;5007836;28;20026;-87
2022/02/12 05:12:03;;;;;;;15.20;5.03;;;-0.80;99.90;;;;;;5007879;28;20112;-87
2022/02/12 05:14:31;;;;;;;10.60;4.60;;;-0.80;99.90;;;;;;5001844;28;20027;-87
2022/02/12 05:16:57;;;;;;;12.77;4.43;;;-0.80;99.90;;;;;;5005983;28;20032;-87
2022/02/12 05:19:23;;;;;;;13.47;4.60;;;-0.80;99.90;;;;;;4996805;28;20057;-87
2022/02/12 05:21:49;;;;;;;11.00;4.03;;;-0.90;99.90;;;;;;5002576;28;20069;-87
2022/02/12 05:24:14;;;;;;;10.90;4.20;;;-0.90;99.90;;;;;;4993440;28;20699;-87
2022/02/12 05:26:40;;;;;;;13.77;4.97;;;-0.90;99.90;;;;;;5001863;28;20022;-87
2022/02/12 05:29:05;;;;;;;9.63;3.87;;;-0.90;99.90;;;;;;5005816;28;20029;-87
2022/02/12 05:31:31;;;;;;;10.60;3.90;;;-0.90;99.90;;;;;;4999347;28;20045;-87
2022/02/12 05:33:57;;;;;;;9.97;3.43;;;-0.90;99.90;;;;;;5005875;28;20090;-88
2022/02/12 05:36:23;;;;;;;7.80;3.37;;;-0.90;99.90;;;;;;5000975;28;20026;-87
2022/02/12 05:38:48;;;;;;;11.10;3.80;;;-0.90;99.90;;;;;;5005587;28;20130;-87
2022/02/12 05:41:15;;;;;;;8.03;3.30;;;-0.90;99.90;;;;;;5003602;28;20030;-87
2022/02/12 05:43:41;;;;;;;9.17;2.67;;;-0.90;99.90;;;;;;5008515;28;20483;-86
2022/02/12 05:46:08;;;;;;;8.23;2.60;;;-0.90;99.90;;;;;;5022203;28;20044;-88
2022/02/12 05:48:34;;;;;;;7.50;2.47;;;-0.90;99.90;;;;;;5006161;28;20030;-87
2022/02/12 05:51:00;;;;;;;9.93;3.30;;;-0.90;99.90;;;;;;5007980;28;20034;-86
2022/02/12 05:53:26;;;;;;;11.53;3.30;;;-0.90;99.90;;;;;;4996106;28;20041;-87
2022/02/12 05:55:51;;;;;;;5.80;2.50;;;-0.90;99.90;;;;;;5000079;28;20037;-87
2022/02/12 05:58:19;;;;;;;6.07;2.80;;;-0.90;99.90;;;;;;5008173;28;20029;-86
2022/02/12 06:00:45;;;;;;;9.30;2.73;;;-0.90;99.90;;;;;;5002956;28;20573;-88
2022/02/12 06:03:11;;;;;;;5.67;2.30;;;-0.90;99.90;;;;;;5011609;28;20054;-86
2022/02/12 06:05:37;;;;;;;9.87;3.07;;;-0.90;99.90;;;;;;5005501;28;20053;-87
2022/02/12 06:08:05;;;;;;;6.70;2.83;;;-0.90;99.90;;;;;;5004003;28;20055;-87
2022/02/12 06:10:31;;;;;;;10.20;3.03;;;-0.90;99.90;;;;;;5003785;28;20022;-87
2022/02/12 06:12:57;;;;;;;12.20;2.20;;;-1.00;99.90;;;;;;5017529;28;20474;-88
2022/02/12 06:15:22;;;;;;;8.00;2.50;;;-1.00;99.90;;;;;;5005703;28;20066;-87
2022/02/12 06:17:49;;;;;;;7.17;2.73;;;-1.00;99.90;;;;;;5003523;28;20496;-87
2022/02/12 06:20:15;;;;;;;6.20;2.30;;;-1.00;99.90;;;;;;5007635;28;20030;-87
2022/02/12 06:22:41;;;;;;;5.87;2.20;;;-0.90;99.90;;;;;;5007449;28;20452;-87
2022/02/12 06:25:07;;;;;;;7.60;2.60;;;-1.00;99.90;;;;;;5020898;28;20061;-87
2022/02/12 06:27:32;;;;;;;6.83;1.97;;;-1.00;99.90;;;;;;5006918;28;20404;-87
2022/02/12 06:29:58;;;;;;;8.00;2.33;;;-1.00;99.90;;;;;;5011461;28;20022;-87
2022/02/12 06:32:24;;;;;;;8.97;2.63;;;-1.00;99.90;;;;;;5002510;28;20033;-87
2022/02/12 06:34:58;;;;;;;8.70;2.30;;;-1.00;99.90;;;;;;5008564;28;20029;-87
2022/02/12 06:37:23;;;;;;;8.07;2.00;;;-1.00;99.90;;;;;;5002879;28;20687;-87
2022/02/12 06:39:49;;;;;;;5.93;2.37;;;-1.00;99.90;;;;;;5002773;28;20077;-87
2022/02/12 06:42:15;;;;;;;9.87;2.57;;;-1.00;99.90;;;;;;5004717;28;20033;-87
2022/02/12 06:44:41;;;;;;;6.27;2.17;;;-1.00;99.90;;;;;;5008270;28;20033;-87
2022/02/12 06:47:08;;;;;;;9.27;2.10;;;-1.00;99.90;;;;;;5009860;28;20117;-87
2022/02/12 06:49:34;;;;;;;9.63;2.77;;;-0.90;99.90;;;;;;5000978;28;20109;-87
2022/02/12 06:52:00;;;;;;;7.40;2.10;;;-1.00;99.90;;;;;;5007701;28;20141;-87
2022/02/12 06:54:26;;;;;;;6.43;1.90;;;-1.00;99.90;;;;;;5001623;28;20065;-87
2022/02/12 06:56:52;;;;;;;12.73;2.53;;;-1.00;99.90;;;;;;5005769;28;20053;-87
2022/02/12 06:59:17;;;;;;;7.97;1.97;;;-1.10;99.90;;;;;;5012440;28;20096;-87
2022/02/12 07:01:43;;;;;;;5.57;2.37;;;-1.00;99.90;;;;;;5000897;28;20541;-87
2022/02/12 07:04:09;;;;;;;7.03;2.00;;;-1.00;99.90;;;;;;5015257;28;20037;-88
2022/02/12 07:06:35;;;;;;;4.63;2.07;;;-1.00;99.90;;;;;;5010631;28;20142;-88
2022/02/12 07:09:00;;;;;;;5.50;1.80;;;-1.00;99.90;;;;;;5001716;28;20069;-86
2022/02/12 07:11:26;;;;;;;5.43;2.20;;;-0.90;99.90;;;;;;5004104;28;20067;-86
2022/02/12 07:13:52;;;;;;;6.33;2.00;;;-0.90;99.90;;;;;;5007741;28;20528;-87
2022/02/12 07:16:17;;;;;;;10.33;2.60;;;-0.90;99.90;;;;;;4999665;28;20037;-87
2022/02/12 07:18:43;;;;;;;8.80;2.33;;;-0.80;99.90;;;;;;5009239;28;20057;-87
2022/02/12 07:21:08;;;;;;;5.80;1.90;;;-0.80;99.90;;;;;;5002824;28;20057;-88
2022/02/12 07:23:34;;;;;;;5.47;1.67;;;-0.80;99.90;;;;;;5009410;28;20041;-87
2022/02/12 07:26:01;;;;;;;9.10;2.00;;;-0.70;99.90;;;;;;5004877;28;20050;-87
2022/02/12 07:28:28;;;;;;;8.03;2.20;;;-0.60;99.90;;;;;;5015071;28;20025;-86
2022/02/12 07:30:55;;;;;;;7.97;2.03;;;-0.50;99.90;;;;;;4999939;28;20042;-85
2022/02/12 07:33:26;;;;;;;4.97;2.00;;;-0.50;99.90;;;;;;4997520;28;20026;-86
2022/02/12 07:35:52;;;;;;;6.83;1.83;;;-0.40;99.90;;;;;;5008242;28;20061;-87
2022/02/12 07:38:18;;;;;;;9.73;2.33;;;-0.40;99.90;;;;;;4999884;28;20018;-86
2022/02/12 07:40:44;;;;;;;6.53;2.17;;;-0.30;99.90;;;;;;5004541;28;20117;-87
2022/02/12 07:43:11;;;;;;;6.43;1.90;;;-0.30;99.90;;;;;;5005221;28;20022;-86
2022/02/12 07:45:39;;;;;;;7.33;2.03;;;-0.30;99.90;;;;;;5006563;28;20077;-86
2022/02/12 07:48:05;;;;;;;4.47;1.73;;;-0.20;99.90;;;;;;5004605;28;20014;-88
2022/02/12 07:50:31;;;;;;;8.00;1.93;;;-0.10;99.90;;;;;;5009811;28;20030;-87
2022/02/12 07:52:56;;;;;;;6.13;2.43;;;-0.10;99.90;;;;;;4993374;28;20663;-87
2022/02/12 07:55:23;;;;;;;8.30;2.30;;;0.00;99.90;;;;;;4993143;28;20049;-88
2022/02/12 07:57:49;;;;;;;7.13;2.30;;;0.10;99.90;;;;;;5009703;28;20026;-87
2022/02/12 08:00:17;;;;;;;7.40;2.23;;;0.20;99.90;;;;;;5000657;28;20037;-87
2022/02/12 08:02:43;;;;;;;7.17;2.40;;;0.20;99.90;;;;;;4996618;28;20037;-87
2022/02/12 08:05:09;;;;;;;9.37;2.40;;;0.30;99.90;;;;;;4996617;28;20036;-86
2022/02/12 08:07:38;;;;;;;6.07;2.43;;;0.30;99.90;;;;;;4998344;28;20050;-86
2022/02/12 08:12:59;;;;;;;8.13;2.73;;;0.50;99.90;;;;;;4998612;28;20037;-87
2022/02/12 08:15:26;;;;;;;9.87;3.00;;;0.50;99.90;;;;;;5001564;28;20472;-87
2022/02/12 08:17:52;;;;;;;10.77;2.67;;;0.50;99.90;;;;;;4999988;28;20033;-87
2022/02/12 08:20:18;;;;;;;7.50;2.37;;;0.50;99.90;;;;;;5006790;28;20033;-86
2022/02/12 08:22:43;;;;;;;6.33;2.23;;;0.60;99.90;;;;;;5002040;28;20030;-87
2022/02/12 08:25:10;;;;;;;10.10;2.80;;;0.80;99.90;;;;;;5010021;28;20076;-87
2022/02/12 08:27:36;;;;;;;7.37;3.20;;;0.80;99.90;;;;;;4995769;28;20034;-87
2022/02/12 08:30:03;;;;;;;6.93;2.43;;;0.80;99.90;;;;;;5003134;28;20092;-85
2022/02/12 08:32:28;;;;;;;9.73;2.73;;;0.80;99.90;;;;;;4996620;28;20048;-85
2022/02/12 08:34:54;;;;;;;7.73;2.83;;;0.90;99.90;;;;;;4994178;28;20468;-85
2022/02/12 08:37:21;;;;;;;17.10;3.13;;;0.90;99.90;;;;;;4993581;28;20034;-85
2022/02/12 08:39:49;;;;;;;7.83;2.63;;;0.90;99.90;;;;;;4995305;28;20393;-84
2022/02/12 08:42:15;;;;;;;7.90;3.43;;;1.00;99.90;;;;;;4997103;28;20038;-84
2022/02/12 08:44:40;;;;;;;8.83;3.10;;;1.10;99.90;;;;;;4996567;28;20034;-81
2022/02/12 08:47:11;;;;;;;11.43;3.27;;;1.20;99.90;;;;;;4995050;28;20634;-85
2022/02/12 08:49:41;;;;;;;11.10;3.07;;;1.20;99.90;;;;;;5001181;28;20083;-85
2022/02/12 08:52:07;;;;;;;7.90;2.50;;;1.20;99.90;;;;;;4995100;28;20056;-86
2022/02/12 08:54:37;;;;;;;11.17;3.00;;;1.20;99.90;;;;;;5002325;28;20034;-85
2022/02/12 08:57:03;;;;;;;10.83;2.97;;;1.40;99.90;;;;;;5000464;28;20030;-84
2022/02/12 08:59:29;;;;;;;11.83;3.20;;;1.50;99.90;;;;;;5009206;28;20038;-84
2022/02/12 09:01:57;;;;;;;7.63;2.73;;;1.40;99.90;;;;;;5121617;23;20045;-90
2022/02/12 09:04:29;;;;;;;7.63;2.60;;;1.50;99.90;;;;;;5036423;28;20041;-91
2022/02/12 09:06:57;;;;;;;8.03;3.70;;;1.40;99.90;;;;;;5014750;28;20040;-91
2022/02/12 09:09:24;;;;;;;8.17;3.13;;;1.50;99.90;;;;;;5020780;28;20264;-90
2022/02/12 09:11:50;;;;;;;7.77;3.00;;;1.50;99.90;;;;;;5003148;28;20026;-91
2022/02/12 09:14:19;;;;;;;11.30;3.17;;;1.50;99.90;;;;;;5008189;28;20061;-91
2022/02/12 09:16:44;;;;;;;10.03;2.60;;;1.60;99.90;;;;;;5007059;28;20491;-92
2022/02/12 09:19:10;;;;;;;6.63;2.63;;;1.60;99.90;;;;;;5005714;28;20041;-90
2022/02/12 09:21:44;;;;;;;9.70;2.80;;;1.70;99.90;;;;;;5009774;28;20113;-92
2022/02/12 09:24:15;;;;;;;11.50;3.07;;;1.70;99.90;;;;;;5008845;28;20026;-90
2022/02/12 09:26:44;;;;;;;13.18;3.67;;;1.80;99.90;;;;;;5008090;28;20030;-91
2022/02/12 09:29:10;;;;;;;5.93;3.27;;;2.00;99.90;;;;;;5003965;28;20053;-92
2022/02/12 09:31:40;;;;;;;8.53;3.10;;;2.00;99.90;;;;;;5002380;28;20033;-92
2022/02/12 09:34:06;;;;;;;7.47;2.83;;;2.10;99.90;;;;;;5004744;28;20022;-91
2022/02/12 09:36:37;;;;;;;9.57;3.27;;;2.30;99.90;;;;;;5005793;28;20061;-91
2022/02/12 09:39:12;;;;;;;6.83;3.00;;;2.40;99.90;;;;;;5012412;28;20025;-92
2022/02/12 09:41:45;;;;;;;11.20;2.80;;;2.40;99.90;;;;;;5007669;28;20048;-91
2022/02/12 09:44:12;;;;;;;8.03;2.67;;;2.50;99.90;;;;;;5012707;28;20033;-91
2022/02/12 09:46:58;;;;;;;8.43;2.87;;;2.50;99.90;;;;;;5008869;28;20029;-91
2022/02/12 09:49:24;;;;;;;8.47;2.93;;;2.50;99.90;;;;;;5008956;28;20049;-92
2022/02/12 09:51:56;;;;;;;7.27;2.43;;;2.60;99.90;;;;;;5005884;28;20030;-91
2022/02/12 09:54:30;;;;;;;9.98;2.60;;;2.70;99.90;;;;;;4999461;28;20037;-91
2022/02/12 09:56:59;;;;;;;8.20;2.93;;;2.70;99.90;;;;;;5009052;28;20125;-91
2022/02/12 09:59:25;;;;;;;7.77;2.73;;;2.70;99.90;;;;;;5025243;28;20041;-92
2022/02/12 10:01:51;;;;;;;8.43;2.70;;;2.70;99.90;;;;;;5015437;28;20030;-91
2022/02/12 10:04:18;;;;;;;7.17;2.30;;;2.80;99.90;;;;;;5026773;28;20033;-91
2022/02/12 10:06:48;;;;;;;12.33;3.27;;;2.90;99.90;;;;;;5008130;28;20030;-92
2022/02/12 10:09:18;;;;;;;7.03;2.50;;;2.90;99.90;;;;;;5005367;28;20117;-90
2022/02/12 10:11:47;;;;;;;9.47;2.60;;;3.10;99.90;;;;;;5005126;28;20034;-92
2022/02/12 10:14:19;;;;;;;10.90;2.70;;;3.10;99.90;;;;;;5008603;28;20140;-91
2022/02/12 10:17:05;;;;;;;8.93;2.90;;;3.10;99.90;;;;;;5004516;28;20092;-93
2022/02/12 10:19:38;;;;;;;7.67;2.70;;;3.20;99.90;;;;;;5006937;28;20037;-92
2022/02/12 10:26:17;;;;;;;6.00;2.57;;;3.30;99.90;;;;;;5023410;28;20033;-92
2022/02/12 10:50:40;;;;;;;;;;;4.10;99.90;;;;;;5023835;28;20045;-90
2022/02/12 10:53:34;;;;;;;4.70;1.97;;;4.20;99.90;;;;;;5025287;28;19968;-89
2022/02/12 10:56:20;;;;;;;6.47;2.43;;;4.10;99.90;;;;;;5006717;28;20088;-89
2022/02/12 10:59:03;;;;;;;12.07;3.30;;;4.10;99.90;;;;;;5036367;28;20041;-89
2022/02/12 11:01:34;;;;;;;7.00;3.03;;;4.20;99.90;;;;;;5029158;28;20042;-90
2022/02/12 11:04:00;;;;;;;11.83;2.90;;;4.20;99.90;;;;;;5035834;28;20038;-90
2022/02/12 11:36:12;;;;;;;9.10;2.57;;;4.60;99.90;;;;;;5041545;28;20045;-89
2022/02/12 11:38:41;;;;;;;4.40;2.13;;;4.70;99.90;;;;;;5022144;28;20037;-89
2022/02/12 11:41:20;;;;;;;6.57;2.70;;;4.70;99.90;;;;;;5020036;28;20487;-88
2022/02/12 11:43:51;;;;;;;5.93;2.00;;;4.80;99.90;;;;;;5027281;28;20044;-87
2022/02/12 11:46:43;;;;;;;8.17;2.50;;;4.90;99.90;;;;;;5011707;28;20018;-88
2022/02/12 11:49:32;;;;;;;4.53;1.75;;;4.80;99.90;;;;;;5020678;28;20055;-87
2022/02/12 11:52:10;;;;;;;3.73;1.70;;;4.80;99.90;;;;;;5041446;28;20167;-88
2022/02/12 11:57:49;;;;;;;5.67;1.90;;;4.90;99.90;;;;;;5037468;28;20374;-88
2022/02/12 12:00:23;;;;;;;8.67;2.77;;;4.90;99.90;;;;;;5025117;28;20037;-89
2022/02/12 12:02:51;;;;;;;7.30;1.87;;;5.10;99.90;;;;;;5033500;28;20319;-88
2022/02/12 12:05:41;;;;;;;5.57;2.00;;;5.10;99.90;;;;;;5024071;28;20045;-88
2022/02/12 12:08:10;;;;;;;3.57;1.33;;;5.30;99.90;;;;;;5017519;28;20037;-88
2022/02/12 12:10:46;;;;;;;5.83;1.87;;;5.20;99.90;;;;;;5015813;28;20475;-88
2022/02/12 12:13:27;;;;;;;5.03;1.60;;;5.40;99.90;;;;;;5020569;28;20033;-88
2022/02/12 12:16:23;;;;;;;5.00;1.60;;;5.50;99.90;;;;;;5019502;28;20055;-87
2022/02/12 12:18:52;;;;;;;2.33;1.03;;;5.60;99.90;;;;;;5023584;28;20036;-88
2022/02/12 12:21:32;;;;;;;2.90;1.10;;;5.70;99.90;;;;;;5023128;28;20050;-88
2022/02/12 12:24:04;;;;;;;4.38;1.45;;;5.60;99.90;;;;;;5019119;28;20026;-88
2022/02/12 12:26:40;;;;;;;7.03;2.37;;;5.70;99.90;;;;;;5039765;28;20085;-88
2022/02/12 12:32:00;;;;;;;3.33;1.20;;;5.80;99.90;;;;;;5041371;28;20043;-88
2022/02/12 12:34:30;;;;;;;2.70;1.37;;;5.80;99.90;;;;;;5040855;28;20077;-88
2022/02/12 12:36:58;;;;;;;3.50;1.07;;;5.90;99.90;;;;;;5019489;28;20034;-88
2022/02/12 12:39:37;;;;;;;3.13;0.90;;;5.90;99.90;;;;;;5025574;28;20044;-89
2022/02/12 12:42:11;;;;;;;2.33;0.80;;;6.10;99.90;;;;;;5040628;28;20044;-88
2022/02/12 12:44:42;;;;;;;4.97;1.20;;;6.20;99.90;;;;;;5024305;28;20075;-88
2022/02/12 12:47:09;;;;;;;2.47;0.90;;;6.20;99.90;;;;;;5023388;28;20038;-88
2022/02/12 12:49:40;;;;;;;3.33;1.07;;;6.30;99.90;;;;;;5024637;28;20021;-88
2022/02/12 12:52:16;;;;;;;3.37;0.83;;;6.30;99.90;;;;;;5041443;28;20026;-88
2022/02/12 12:54:46;;;;;;;2.60;0.80;;;6.40;99.90;;;;;;5020005;28;20018;-89
2022/02/12 12:57:15;;;;;;;3.13;0.70;;;6.40;99.90;;;;;;5025981;28;20043;-88
2022/02/12 12:59:57;;;;;;;2.13;0.60;;;6.50;99.90;;;;;;5023587;28;20017;-88
2022/02/12 13:02:24;;;;;;;1.45;0.63;;;6.50;99.60;;;;;;5025321;28;20020;-88
2022/02/12 13:05:07;;;;;;;1.70;0.80;;;6.50;99.40;;;;;;5025989;28;20025;-87
2022/02/12 13:07:36;;;;;;;2.60;0.70;;;6.60;97.90;;;;;;5025626;28;20098;-88
2022/02/12 13:10:05;;;;;;;3.43;0.87;;;6.50;97.70;;;;;;5024998;28;20021;-88
2022/02/12 13:12:35;;;;;;;2.10;0.70;;;6.40;97.70;;;;;;5032436;28;20018;-88
2022/02/12 13:15:13;;;;;;;2.87;0.70;;;6.40;97.60;;;;;;5054166;28;20014;-89
2022/02/12 13:18:06;;;;;;;1.77;0.70;;;6.50;98.90;;;;;;5026665;28;20021;-89
2022/02/12 13:20:34;;;;;;;2.73;0.83;;;6.70;98.20;;;;;;5012972;28;20022;-89
2022/02/12 13:23:07;;;;;;;2.27;0.80;;;6.70;96.90;;;;;;5026216;28;20025;-88
2022/02/12 13:25:44;;;;;;;3.93;0.77;;;6.70;95.30;;;;;;5026673;28;20030;-87
2022/02/12 13:28:14;;;;;;;2.87;0.83;;;6.70;96.60;;;;;;5025016;28;20041;-88
2022/02/12 13:30:47;;;;;;;3.53;0.90;;;6.70;96.40;;;;;;5023994;28;20025;-88
2022/02/12 13:33:32;;;;;;;3.53;1.17;;;6.70;96.00;;;;;;5026427;28;20109;-90
2022/02/12 13:36:17;;;;;;;5.17;1.13;;;6.80;96.70;;;;;;5026986;28;20020;-88
2022/02/12 13:38:46;;;;;;;2.87;0.70;;;6.90;95.70;;;;;;5025280;28;20064;-87
2022/02/12 13:41:14;;;;;;;3.27;1.03;;;6.80;95.00;;;;;;5020078;28;20046;-87
2022/02/12 13:43:48;;;;;;;4.53;0.90;;;6.80;95.20;;;;;;5025207;28;20426;-88
2022/02/12 13:50:10;;;;;;;6.80;1.30;;;7.00;96.40;;;;;;5004835;28;20038;-86
2022/02/12 13:52:37;;;;;;;4.33;1.17;;;7.20;96.60;;;;;;5011075;28;20053;-85
2022/02/12 13:55:17;;;;;;;;;;;;;;;;;;;;;
2022/02/12 13:57:57;;;;;;;2.67;1.20;;;7.20;97.20;;;;;;5036441;28;20029;-85
2022/02/12 14:01:01;;;;;;;;;;;;;;;;;;;;;
2022/02/12 14:03:33;;;;;;;3.07;0.97;;;7.30;95.70;;;;;;5037615;28;20427;-88
2022/02/12 14:06:02;;;;;;;6.35;1.33;;;7.20;95.90;;;;;;5043778;28;20026;-88
2022/02/12 14:08:42;;;;;;;4.80;1.10;;;7.20;96.20;;;;;;5027762;28;20052;-87
2022/02/12 14:11:19;;;;;;;3.23;1.30;;;7.20;96.90;;;;;;5031439;28;20117;-88
2022/02/12 14:13:48;;;;;;;5.00;1.53;;;7.30;96.80;;;;;;5048947;28;20022;-87